SBOSBO GOA / LIMJ
Speedbird OnlineSpeedbird Online GOA / LIMJ

Genoa Cristoforo Colombo Airport
21:31 10.5°C

Location Genoa, Italy
Latitude: 44.4133
Longitude: 8.8375
Local Time 21:31 on 23 Feb 2024
UTC +1 hours (Europe/Rome)
Currency £1 equals EUR 1.17
METAR LIMJ 231950Z VRB01KT CAVOK 11/06 Q0998
TAF TAF LIMJ 231700Z 2318/2418 13010KT 9999 FEW020 BECMG 2318/2320 04008KT BECMG 2407/2409 21015G25KT TEMPO 2409/2416 SHRA
Weather As Of 23 Feb 2024 21:29
Description Clear sky
Wind 2 km/h from North (0°)
Cloud Cover 0%
Precipitation Rain: none, Snow: none
Sunrise 07:13
Sunset 18:03
Rotations During the last 90 days there were
1 flights to LHR
Lounges Sala Genova (Temporarily Closed), Main Terminal
Web Airport Website | Wikipedia
Codes IATA: GOA
ICAO: LIMJ
Altitude 4 Meter / 13 Feet
Distance 1,020 KM / 634 Miles
from London.
Runways
RunwayLength (m)Surface
102915Asphalt
282915Asphalt
Radio
TypeDescriptionFrequency
APPAPP119.6
ATISATIS122.825
TWRTWR118.6
Live ATC



Support Speedbird Online

© 2017-2024 Speedbird Online